Hetland, South Dakota
Current Conditions -  °F | °C
As of 9:35 AM on Saturday 22 Nov 2014 (Local Time) from KMDS Reporting Station
Moderate Fog Moderate Fog  
Wind Chill: 15°   Ceiling: 200
Heat Index: 25°   Visibility: 0mi
Dew Point: 25°   Wind: 9mph
Humidity: 100%   Direction: 170°S
Pressure: 29.68"   Gusts: NA
Location:  44.38°N, 97.23°W
Report Text: KMDS 221535Z AUTO 17008KT M1/4SM FZFG OVC002 M04/M04 A2968 RMK AO2
Loading
Personal Weather Stations






























Interactive Weather Map New forecast layout! Learn more

10-Day Weather Forecast

Advertisements
Track Severe Weather on mobile